Time;durP1;ratioP1;P1;durP2;ratioP2;P2;SDS_P1;SDS_P2;PMS_P1;PMS_P2;Temp;Humidity;BMP_temperature;BMP_pressure;BME280_temperature;BME280_humidity;BME280_pressure;Samples;Min_cycle;Max_cycle;Signal;HPM_P1;HPM_P2
2021/10/11 00:00:18;;;;;;;16.20;3.17;;;10.40;99.90;;;;;;5022348;28;20029;-59
2021/10/11 00:02:44;;;;;;;12.98;2.88;;;10.40;99.90;;;;;;5020955;28;20479;-59
2021/10/11 00:05:12;;;;;;;9.25;2.60;;;10.30;99.90;;;;;;5022750;28;20048;-61
2021/10/11 00:07:40;;;;;;;16.20;3.15;;;10.30;99.90;;;;;;5014559;28;20065;-58
2021/10/11 00:10:07;;;;;;;17.33;2.92;;;10.30;99.90;;;;;;5020304;28;20073;-59
2021/10/11 00:12:33;;;;;;;11.85;3.08;;;10.40;99.90;;;;;;5013732;28;20049;-59
2021/10/11 00:14:59;;;;;;;15.05;3.28;;;10.40;99.90;;;;;;5016849;28;20088;-60
2021/10/11 00:17:25;;;;;;;13.27;3.15;;;10.30;99.90;;;;;;5004404;28;20413;-58
2021/10/11 00:19:51;;;;;;;17.63;3.28;;;10.40;99.90;;;;;;5011323;28;20040;-57
2021/10/11 00:22:22;;;;;;;11.60;2.50;;;10.30;99.90;;;;;;5029725;28;20529;-59
2021/10/11 00:24:48;;;;;;;9.95;2.85;;;10.30;99.90;;;;;;5022610;28;20045;-57
2021/10/11 00:27:14;;;;;;;11.43;3.00;;;10.30;99.90;;;;;;5025779;28;20026;-58
2021/10/11 00:29:40;;;;;;;17.50;3.35;;;10.40;99.90;;;;;;5022494;28;20096;-61
2021/10/11 00:32:08;;;;;;;15.88;3.60;;;10.40;99.90;;;;;;5023187;28;20041;-59
2021/10/11 00:34:35;;;;;;;13.43;2.75;;;10.40;99.90;;;;;;5008556;28;20121;-61
2021/10/11 00:37:00;;;;;;;13.23;3.03;;;10.40;99.90;;;;;;5014976;28;20476;-57
2021/10/11 00:39:26;;;;;;;22.45;3.92;;;10.30;99.90;;;;;;5005300;28;20029;-58
2021/10/11 00:41:52;;;;;;;16.00;3.25;;;10.30;99.90;;;;;;5015627;28;20025;-59
2021/10/11 00:44:18;;;;;;;15.13;3.30;;;10.30;99.90;;;;;;5027630;28;20049;-56
2021/10/11 00:46:43;;;;;;;17.02;3.95;;;10.30;99.90;;;;;;5009350;28;20089;-57
2021/10/11 00:49:09;;;;;;;21.00;4.32;;;10.30;99.90;;;;;;5025030;28;20037;-60
2021/10/11 00:51:35;;;;;;;19.35;2.80;;;10.30;99.90;;;;;;5018084;28;20563;-61
2021/10/11 00:54:00;;;;;;;13.70;3.25;;;10.40;99.90;;;;;;5015258;28;20495;-60
2021/10/11 00:56:26;;;;;;;19.45;3.40;;;10.30;99.90;;;;;;5019062;28;20377;-58
2021/10/11 00:58:52;;;;;;;20.15;3.70;;;10.20;99.90;;;;;;5014696;28;20030;-59
2021/10/11 01:01:18;;;;;;;16.73;3.05;;;10.20;99.90;;;;;;5021398;28;20476;-59
2021/10/11 01:03:44;;;;;;;12.55;2.88;;;10.20;99.90;;;;;;5012767;28;20038;-62
2021/10/11 01:06:09;;;;;;;16.80;3.35;;;10.20;99.90;;;;;;5026619;28;20096;-59
2021/10/11 01:08:35;;;;;;;15.38;3.13;;;10.20;99.90;;;;;;5021835;28;20087;-59
2021/10/11 01:11:01;;;;;;;20.50;3.30;;;10.30;99.90;;;;;;5012430;28;20037;-59
2021/10/11 01:13:28;;;;;;;15.88;3.03;;;10.20;99.90;;;;;;5010661;28;20053;-59
2021/10/11 01:15:55;;;;;;;16.08;3.60;;;10.20;99.90;;;;;;5019027;28;20034;-57
2021/10/11 01:18:21;;;;;;;18.55;3.63;;;10.20;99.90;;;;;;5019460;28;20033;-60
2021/10/11 01:20:46;;;;;;;13.57;2.95;;;10.10;99.90;;;;;;5011690;28;20030;-58
2021/10/11 01:23:12;;;;;;;18.90;3.00;;;10.10;99.90;;;;;;5019053;28;20037;-55
2021/10/11 01:25:38;;;;;;;14.77;3.55;;;10.10;99.90;;;;;;5010564;28;20060;-60
2021/10/11 01:28:04;;;;;;;19.08;3.63;;;10.10;99.90;;;;;;5018319;28;20044;-60
2021/10/11 01:30:30;;;;;;;12.10;3.20;;;10.20;99.90;;;;;;5021522;28;20026;-58
2021/10/11 01:32:55;;;;;;;21.90;3.53;;;10.10;99.90;;;;;;5018145;28;20048;-57
2021/10/11 01:35:22;;;;;;;18.27;3.50;;;10.10;99.90;;;;;;5012456;28;20080;-60
2021/10/11 01:37:49;;;;;;;17.25;3.42;;;10.10;99.90;;;;;;5023000;28;20379;-56
2021/10/11 01:40:16;;;;;;;20.00;4.03;;;10.10;99.90;;;;;;5018875;28;20376;-58
2021/10/11 01:42:42;;;;;;;15.43;3.30;;;10.00;99.90;;;;;;5007926;28;20057;-57
2021/10/11 01:45:09;;;;;;;23.75;3.40;;;10.00;99.90;;;;;;5015830;28;20483;-57
2021/10/11 01:47:35;;;;;;;16.00;3.30;;;10.00;99.90;;;;;;5015207;28;20151;-60
2021/10/11 01:50:00;;;;;;;17.88;3.38;;;10.00;99.90;;;;;;5022338;28;20120;-60
2021/10/11 01:52:26;;;;;;;13.73;2.83;;;10.00;99.90;;;;;;5021608;28;20168;-59
2021/10/11 01:54:52;;;;;;;14.85;3.28;;;9.90;99.90;;;;;;5028875;28;20487;-58
2021/10/11 01:57:19;;;;;;;13.50;3.00;;;9.90;99.90;;;;;;5018207;28;20022;-59
2021/10/11 01:59:44;;;;;;;15.57;3.30;;;9.80;99.90;;;;;;5023823;28;20526;-59
2021/10/11 02:02:11;;;;;;;18.25;3.42;;;9.80;99.90;;;;;;5011089;28;20022;-58
2021/10/11 02:04:36;;;;;;;11.27;3.45;;;9.70;99.90;;;;;;5019869;28;20033;-59
2021/10/11 02:07:02;;;;;;;18.10;3.50;;;9.70;99.90;;;;;;5019237;28;20027;-60
2021/10/11 02:09:28;;;;;;;17.40;3.60;;;9.60;99.90;;;;;;5011687;28;20045;-57
2021/10/11 02:11:54;;;;;;;18.65;3.97;;;9.60;99.90;;;;;;5011020;28;20388;-57
2021/10/11 02:14:19;;;;;;;18.38;2.92;;;9.70;99.90;;;;;;5020454;28;20088;-58
2021/10/11 02:16:45;;;;;;;15.15;3.53;;;9.70;99.90;;;;;;5008115;28;20033;-60
2021/10/11 02:19:11;;;;;;;15.95;3.40;;;9.70;99.90;;;;;;5014650;28;20022;-61
2021/10/11 02:21:37;;;;;;;13.40;2.63;;;9.60;99.90;;;;;;5021672;28;20052;-60
2021/10/11 02:24:03;;;;;;;17.98;3.58;;;9.60;99.90;;;;;;5020603;28;20026;-59
2021/10/11 02:26:29;;;;;;;14.25;3.35;;;9.60;99.90;;;;;;5016860;28;20034;-57
2021/10/11 02:28:54;;;;;;;11.98;3.10;;;9.60;99.90;;;;;;5020117;28;20057;-57
2021/10/11 02:31:20;;;;;;;17.05;3.30;;;9.50;99.90;;;;;;5018444;28;20030;-60
2021/10/11 02:33:46;;;;;;;19.98;2.92;;;9.50;99.90;;;;;;5015684;28;20022;-57
2021/10/11 02:36:13;;;;;;;15.05;3.05;;;9.50;99.90;;;;;;5011329;28;20375;-59
2021/10/11 02:38:39;;;;;;;19.77;3.45;;;9.40;99.90;;;;;;5010602;28;20040;-57
2021/10/11 02:41:04;;;;;;;15.00;3.20;;;9.40;99.90;;;;;;5017417;28;20132;-59
2021/10/11 02:43:30;;;;;;;14.70;3.38;;;9.40;99.90;;;;;;5019574;28;20034;-58
2021/10/11 02:45:57;;;;;;;15.98;2.90;;;9.40;99.90;;;;;;5015856;28;20029;-57
2021/10/11 02:48:23;;;;;;;19.75;3.35;;;9.40;99.90;;;;;;5005418;28;20503;-51
2021/10/11 02:50:48;;;;;;;22.80;3.50;;;9.30;99.90;;;;;;5015821;28;20061;-59
2021/10/11 02:53:15;;;;;;;16.20;3.67;;;9.30;99.90;;;;;;5023899;28;20365;-59
2021/10/11 02:55:41;;;;;;;18.60;3.65;;;9.30;99.90;;;;;;5022176;28;20022;-60
2021/10/11 02:58:07;;;;;;;14.18;3.08;;;9.30;99.90;;;;;;5015177;28;20091;-58
2021/10/11 03:00:33;;;;;;;15.05;3.08;;;9.30;99.90;;;;;;5014364;28;20030;-56
2021/10/11 03:02:58;;;;;;;18.48;3.50;;;9.20;99.90;;;;;;5028126;28;20033;-56
2021/10/11 03:05:24;;;;;;;19.05;3.20;;;9.20;99.90;;;;;;5007560;28;20088;-57
2021/10/11 03:07:50;;;;;;;15.77;3.58;;;9.30;99.90;;;;;;5013002;28;20053;-59
2021/10/11 03:10:16;;;;;;;18.50;3.58;;;9.30;99.90;;;;;;5018039;28;20029;-59
2021/10/11 03:12:41;;;;;;;18.73;3.78;;;9.30;99.90;;;;;;5018232;28;20063;-57
2021/10/11 03:15:08;;;;;;;16.35;3.78;;;9.30;99.90;;;;;;5013377;28;20034;-58
2021/10/11 03:17:34;;;;;;;18.83;3.67;;;9.30;99.90;;;;;;5013667;28;20034;-59
2021/10/11 03:20:00;;;;;;;15.10;3.60;;;9.20;99.90;;;;;;5014775;28;20045;-57
2021/10/11 03:22:27;;;;;;;22.25;3.65;;;9.20;99.90;;;;;;5012606;28;20034;-56
2021/10/11 03:24:53;;;;;;;16.17;4.00;;;9.20;99.90;;;;;;5021727;28;20046;-57
2021/10/11 03:27:19;;;;;;;18.20;3.08;;;9.20;99.90;;;;;;5009194;28;20023;-57
2021/10/11 03:29:45;;;;;;;18.13;3.38;;;9.20;99.90;;;;;;5009213;28;20064;-59
2021/10/11 03:32:11;;;;;;;16.40;3.47;;;9.30;99.90;;;;;;5019500;28;20456;-57
2021/10/11 03:34:36;;;;;;;12.95;3.47;;;9.20;99.90;;;;;;5015481;28;20034;-56
2021/10/11 03:37:02;;;;;;;14.57;3.00;;;9.30;99.90;;;;;;5022904;28;20440;-60
2021/10/11 03:39:28;;;;;;;16.58;3.38;;;9.20;99.90;;;;;;5013188;28;20025;-57
2021/10/11 03:41:54;;;;;;;20.13;3.78;;;9.20;99.90;;;;;;5028808;28;20034;-59
2021/10/11 03:44:19;;;;;;;15.73;3.35;;;9.20;99.90;;;;;;5022270;28;20199;-56
2021/10/11 03:46:45;;;;;;;16.85;3.53;;;9.10;99.90;;;;;;5012798;28;20044;-57
2021/10/11 03:49:11;;;;;;;19.00;3.70;;;9.00;99.90;;;;;;5030313;28;20052;-57
2021/10/11 03:51:36;;;;;;;13.77;3.38;;;9.00;99.90;;;;;;5015669;28;20034;-59
2021/10/11 03:54:02;;;;;;;16.50;3.80;;;9.00;99.90;;;;;;5021321;28;20061;-59
2021/10/11 03:56:28;;;;;;;16.58;3.10;;;9.00;99.90;;;;;;5032637;28;20032;-59
2021/10/11 03:58:54;;;;;;;16.88;3.40;;;8.90;99.90;;;;;;5013035;28;20040;-60
2021/10/11 04:01:20;;;;;;;22.40;3.08;;;8.80;99.90;;;;;;5021772;28;20032;-57
2021/10/11 04:03:45;;;;;;;18.92;3.47;;;8.80;99.90;;;;;;5026346;28;20041;-60
2021/10/11 04:06:11;;;;;;;20.17;3.85;;;8.80;99.90;;;;;;5032200;28;20112;-59
2021/10/11 04:08:40;;;;;;;26.92;4.45;;;8.80;99.90;;;;;;5018433;28;20025;-57
2021/10/11 04:13:34;;;;;;;22.58;3.53;;;8.90;99.90;;;;;;5015872;28;20057;-58
2021/10/11 04:15:59;;;;;;;17.42;3.28;;;8.80;99.90;;;;;;5027661;28;20457;-58
2021/10/11 04:18:26;;;;;;;19.58;3.55;;;8.80;99.90;;;;;;5021383;28;20029;-59
2021/10/11 04:20:52;;;;;;;19.38;4.07;;;8.90;99.90;;;;;;5025898;28;20025;-58
2021/10/11 04:23:17;;;;;;;15.32;2.88;;;8.90;99.90;;;;;;5018633;28;20074;-56
2021/10/11 04:25:43;;;;;;;21.70;4.05;;;8.90;99.90;;;;;;5019473;28;20043;-57
2021/10/11 04:28:11;;;;;;;19.77;3.33;;;8.80;99.90;;;;;;5014977;28;20476;-58
2021/10/11 04:30:37;;;;;;;20.52;3.55;;;8.80;99.90;;;;;;5015168;28;20510;-57
2021/10/11 04:33:04;;;;;;;17.30;3.50;;;8.70;99.90;;;;;;5015717;28;20029;-56
2021/10/11 04:35:29;;;;;;;24.02;3.50;;;8.80;99.90;;;;;;5018135;28;20073;-57
2021/10/11 04:37:55;;;;;;;18.10;3.33;;;8.80;99.90;;;;;;5006932;28;20057;-58
2021/10/11 04:40:21;;;;;;;26.38;5.85;;;8.80;99.90;;;;;;5017642;28;20033;-56
2021/10/11 04:42:47;;;;;;;19.60;3.75;;;8.80;99.90;;;;;;5020536;28;20065;-59
2021/10/11 04:45:14;;;;;;;20.88;3.97;;;8.80;99.90;;;;;;5010521;28;20030;-58
2021/10/11 04:47:39;;;;;;;25.20;5.80;;;8.80;99.90;;;;;;5020917;28;20107;-59
2021/10/11 04:50:06;;;;;;;19.13;3.70;;;8.80;99.90;;;;;;5019269;28;20076;-58
2021/10/11 04:52:32;;;;;;;18.92;3.53;;;8.80;99.90;;;;;;5023335;28;20034;-57
2021/10/11 04:54:57;;;;;;;20.15;3.72;;;8.70;99.90;;;;;;5013135;28;20447;-59
2021/10/11 04:57:23;;;;;;;21.48;3.33;;;8.70;99.90;;;;;;5027513;28;20473;-59
2021/10/11 04:59:49;;;;;;;23.20;4.10;;;8.70;99.90;;;;;;5018585;28;20069;-59
2021/10/11 05:02:15;;;;;;;19.45;3.75;;;8.70;99.90;;;;;;5011421;28;20030;-57
2021/10/11 05:04:40;;;;;;;25.80;4.57;;;8.70;99.90;;;;;;5011172;28;20040;-58
2021/10/11 05:07:06;;;;;;;18.50;4.20;;;8.80;99.90;;;;;;5027138;28;20033;-55
2021/10/11 05:09:32;;;;;;;24.08;3.90;;;8.80;99.90;;;;;;5029135;28;20426;-58
2021/10/11 05:11:58;;;;;;;33.13;4.65;;;8.80;99.90;;;;;;5018182;28;20068;-59
2021/10/11 05:14:23;;;;;;;19.55;3.60;;;8.80;99.90;;;;;;5010475;28;20107;-59
2021/10/11 05:16:49;;;;;;;21.25;3.85;;;8.80;99.90;;;;;;5025557;28;20029;-58
2021/10/11 05:19:23;;;;;;;21.40;5.20;;;8.80;99.90;;;;;;5021794;28;20034;-60
2021/10/11 05:21:48;;;;;;;23.80;4.32;;;8.80;99.90;;;;;;5031202;28;20036;-58
2021/10/11 05:24:16;;;;;;;24.20;4.40;;;8.70;99.90;;;;;;5027714;28;20037;-61
2021/10/11 05:26:41;;;;;;;18.48;3.72;;;8.70;99.90;;;;;;5022392;28;20444;-58
2021/10/11 05:29:07;;;;;;;18.63;3.70;;;8.70;99.90;;;;;;5015181;28;20057;-58
2021/10/11 05:31:33;;;;;;;11.85;3.50;;;8.60;99.90;;;;;;5026692;28;20434;-59
2021/10/11 05:33:59;;;;;;;23.75;4.03;;;8.60;99.90;;;;;;5019695;28;20091;-58
2021/10/11 05:36:25;;;;;;;24.73;4.13;;;8.60;99.90;;;;;;5029112;28;20021;-58
2021/10/11 05:38:51;;;;;;;25.17;4.45;;;8.70;99.90;;;;;;5015685;28;20566;-58
2021/10/11 05:41:16;;;;;;;18.77;4.43;;;8.70;99.90;;;;;;5024827;28;20043;-59
2021/10/11 05:43:42;;;;;;;26.70;5.35;;;8.80;99.90;;;;;;5018127;28;20122;-58
2021/10/11 05:46:08;;;;;;;25.50;6.38;;;8.70;99.90;;;;;;5030950;28;20029;-57
2021/10/11 05:48:33;;;;;;;17.55;3.60;;;8.60;99.90;;;;;;5018273;28;20033;-59
2021/10/11 05:50:59;;;;;;;28.63;6.20;;;8.60;99.90;;;;;;5021076;28;20084;-54
2021/10/11 05:53:25;;;;;;;16.55;3.58;;;8.60;99.90;;;;;;5016173;28;20041;-59
2021/10/11 05:55:51;;;;;;;22.73;4.40;;;8.60;99.90;;;;;;5011381;28;20079;-58
2021/10/11 05:58:16;;;;;;;23.50;4.05;;;8.60;99.90;;;;;;5000369;28;20145;-58
2021/10/11 06:00:42;;;;;;;18.95;3.80;;;8.70;99.90;;;;;;5012410;28;20026;-58
2021/10/11 06:03:09;;;;;;;20.35;4.25;;;8.70;99.90;;;;;;5010109;28;20030;-54
2021/10/11 06:05:35;;;;;;;22.88;4.57;;;8.60;99.90;;;;;;5022968;28;20079;-57
2021/10/11 06:08:01;;;;;;;27.50;4.78;;;8.70;99.90;;;;;;5030182;28;20033;-60
2021/10/11 06:10:27;;;;;;;23.85;4.30;;;8.70;99.90;;;;;;5016089;28;20041;-60
2021/10/11 06:12:53;;;;;;;22.08;4.22;;;8.60;99.90;;;;;;5020731;28;20504;-59
2021/10/11 06:15:19;;;;;;;22.63;3.90;;;8.60;99.90;;;;;;5012271;28;20040;-60
2021/10/11 06:17:45;;;;;;;20.55;4.88;;;8.70;99.90;;;;;;5010322;28;20395;-59
2021/10/11 06:20:11;;;;;;;23.05;4.55;;;8.70;99.90;;;;;;5011174;28;20029;-58
2021/10/11 06:22:37;;;;;;;25.23;5.13;;;8.70;99.90;;;;;;5023584;28;20061;-58
2021/10/11 06:25:04;;;;;;;29.33;5.25;;;8.70;99.90;;;;;;5016275;28;20095;-60
2021/10/11 06:27:31;;;;;;;24.65;4.97;;;8.70;99.90;;;;;;5022345;28;20040;-58
2021/10/11 06:29:57;;;;;;;20.23;4.32;;;8.80;99.90;;;;;;5022171;28;20037;-58
2021/10/11 06:32:22;;;;;;;28.38;4.43;;;8.70;99.90;;;;;;5025446;28;20095;-59
2021/10/11 06:34:48;;;;;;;24.48;4.72;;;8.70;99.90;;;;;;5013995;28;20030;-59
2021/10/11 06:37:14;;;;;;;22.25;4.65;;;8.70;99.90;;;;;;5015794;28;20036;-56
2021/10/11 06:39:40;;;;;;;22.77;4.93;;;8.80;99.90;;;;;;5010318;28;20435;-59
2021/10/11 06:42:05;;;;;;;24.45;7.22;;;8.80;99.90;;;;;;5013691;28;20033;-57
2021/10/11 06:44:31;;;;;;;42.17;13.10;;;8.80;99.90;;;;;;5010497;28;20472;-59
2021/10/11 06:46:58;;;;;;;26.58;5.22;;;8.70;99.90;;;;;;5001046;28;20158;-59
2021/10/11 06:49:24;;;;;;;20.60;5.70;;;8.80;99.90;;;;;;5001427;28;20018;-57
2021/10/11 06:51:50;;;;;;;25.42;5.15;;;8.70;99.90;;;;;;5001556;28;20038;-56
2021/10/11 06:54:16;;;;;;;20.52;4.43;;;8.70;99.90;;;;;;4999572;28;20097;-59
2021/10/11 06:56:42;;;;;;;21.50;4.60;;;8.70;99.90;;;;;;5008859;28;20030;-58
2021/10/11 06:59:07;;;;;;;21.70;4.43;;;8.70;99.90;;;;;;5012086;28;20037;-58
2021/10/11 07:01:33;;;;;;;27.05;4.63;;;8.80;99.90;;;;;;5003891;28;20042;-56
2021/10/11 07:03:59;;;;;;;26.08;5.30;;;8.80;99.90;;;;;;5007909;28;20054;-59
2021/10/11 07:06:25;;;;;;;23.83;4.95;;;8.80;99.90;;;;;;5012869;28;20061;-60
2021/10/11 07:08:52;;;;;;;27.52;5.72;;;8.80;99.90;;;;;;5011848;28;20443;-59
2021/10/11 07:11:19;;;;;;;27.10;4.47;;;8.80;99.90;;;;;;5010421;28;20038;-59
2021/10/11 07:13:44;;;;;;;26.73;4.90;;;8.90;99.90;;;;;;5006014;28;20382;-59
2021/10/11 07:16:10;;;;;;;22.58;5.07;;;8.90;99.90;;;;;;5013018;28;20472;-56
2021/10/11 07:18:38;;;;;;;21.85;4.55;;;9.00;99.90;;;;;;4995137;28;20032;-55
2021/10/11 07:21:07;;;;;;;27.75;7.70;;;8.90;99.90;;;;;;5012739;28;20026;-58
2021/10/11 07:23:33;;;;;;;27.40;4.70;;;9.00;99.90;;;;;;5010630;28;20092;-59
2021/10/11 07:26:01;;;;;;;24.10;5.03;;;9.10;99.90;;;;;;5013289;28;20026;-56
2021/10/11 07:28:28;;;;;;;22.70;4.38;;;9.10;99.90;;;;;;4995378;28;20088;-59
2021/10/11 07:30:54;;;;;;;21.90;4.53;;;9.10;99.90;;;;;;4992613;28;20038;-58
2021/10/11 07:33:20;;;;;;;30.25;5.18;;;9.10;99.90;;;;;;5005361;28;20073;-59
2021/10/11 07:35:46;;;;;;;24.52;4.68;;;9.20;99.90;;;;;;4994906;28;20407;-58
2021/10/11 07:38:12;;;;;;;20.55;4.40;;;9.30;99.90;;;;;;5005781;28;20026;-57
2021/10/11 07:40:38;;;;;;;21.05;4.85;;;9.40;99.90;;;;;;4992818;28;20032;-56
2021/10/11 07:43:04;;;;;;;28.63;4.40;;;9.40;99.90;;;;;;4995998;28;20109;-58
2021/10/11 07:45:31;;;;;;;24.15;5.32;;;9.40;99.90;;;;;;5007633;28;20376;-59
2021/10/11 07:47:56;;;;;;;14.93;3.90;;;9.40;99.90;;;;;;4995328;28;20020;-55
2021/10/11 07:50:22;;;;;;;20.38;4.00;;;9.50;99.90;;;;;;5000630;28;20097;-57
2021/10/11 07:52:48;;;;;;;21.60;5.35;;;9.50;99.90;;;;;;4996938;28;20038;-58
2021/10/11 07:55:14;;;;;;;28.77;4.72;;;9.60;99.90;;;;;;5001424;28;20025;-56
2021/10/11 07:57:41;;;;;;;31.67;4.72;;;9.60;99.90;;;;;;5006655;28;20053;-58
2021/10/11 08:00:14;;;;;;;15.02;4.13;;;9.70;99.90;;;;;;5005343;28;20145;-59
2021/10/11 08:02:40;;;;;;;19.02;4.25;;;9.70;99.90;;;;;;4996435;28;20496;-61
2021/10/11 08:05:06;;;;;;;17.52;3.67;;;9.70;99.90;;;;;;5007315;28;20161;-55
2021/10/11 08:07:32;;;;;;;19.83;4.00;;;9.80;99.90;;;;;;5012171;28;20524;-61
2021/10/11 08:09:58;;;;;;;17.00;4.28;;;9.80;99.90;;;;;;5010566;28;20101;-59
2021/10/11 08:12:24;;;;;;;13.40;3.65;;;9.90;99.90;;;;;;5008117;28;20045;-55
2021/10/11 08:14:49;;;;;;;18.38;3.90;;;10.00;99.90;;;;;;5011077;28;20038;-60
2021/10/11 08:17:15;;;;;;;22.05;4.20;;;10.10;99.90;;;;;;5010216;28;20036;-57
2021/10/11 08:19:41;;;;;;;17.25;3.78;;;10.10;99.90;;;;;;4998119;28;20034;-57
2021/10/11 08:22:07;;;;;;;22.27;3.78;;;10.20;99.90;;;;;;4992777;28;20030;-57
2021/10/11 08:24:33;;;;;;;18.17;4.88;;;10.30;99.90;;;;;;4996527;28;20030;-59
2021/10/11 08:26:58;;;;;;;19.50;3.67;;;10.50;99.90;;;;;;4997046;28;20034;-58
2021/10/11 08:29:25;;;;;;;16.73;3.53;;;10.60;99.90;;;;;;4991908;28;20026;-57
2021/10/11 08:31:52;;;;;;;20.90;3.83;;;10.70;99.90;;;;;;4999262;28;20034;-57
2021/10/11 08:34:19;;;;;;;19.92;4.38;;;10.90;99.90;;;;;;4993907;28;20049;-59
2021/10/11 08:36:45;;;;;;;19.48;4.15;;;11.00;99.90;;;;;;5004184;28;20432;-54
2021/10/11 08:39:11;;;;;;;21.63;4.50;;;11.20;99.90;;;;;;5017780;28;20022;-55
2021/10/11 08:41:38;;;;;;;21.10;4.78;;;11.30;99.90;;;;;;4994256;28;20085;-59
2021/10/11 08:44:04;;;;;;;14.50;3.60;;;11.30;99.90;;;;;;4991634;28;20424;-60
2021/10/11 08:46:29;;;;;;;18.70;3.38;;;11.30;99.90;;;;;;5002568;28;20084;-57
2021/10/11 08:48:55;;;;;;;18.45;3.58;;;11.50;99.90;;;;;;4992382;28;20034;-58
2021/10/11 08:51:22;;;;;;;22.67;4.30;;;11.60;99.90;;;;;;4991380;28;20106;-58
2021/10/11 08:53:48;;;;;;;18.77;3.22;;;11.60;99.90;;;;;;5005197;28;20037;-59
2021/10/11 08:56:14;;;;;;;18.35;3.33;;;11.70;99.90;;;;;;5010431;28;20109;-59
2021/10/11 08:58:46;;;;;;;19.85;3.95;;;11.80;99.90;;;;;;5004543;28;20033;-58
2021/10/11 09:01:13;;;;;;;23.92;3.92;;;11.80;99.90;;;;;;5002991;28;20391;-57
2021/10/11 09:03:39;;;;;;;17.70;4.18;;;11.70;99.90;;;;;;5007495;28;20124;-58
2021/10/11 09:06:07;;;;;;;19.33;3.70;;;11.70;99.90;;;;;;5004927;28;20030;-57
2021/10/11 09:08:35;;;;;;;15.20;3.63;;;11.80;99.90;;;;;;4991870;28;20022;-58
2021/10/11 09:11:03;;;;;;;23.73;3.88;;;11.90;99.90;;;;;;4996960;28;20030;-59
2021/10/11 09:13:44;;;;;;;22.13;4.22;;;12.00;99.90;;;;;;5000646;28;20054;-59
2021/10/11 09:18:59;;;;;;;12.20;3.38;;;12.20;99.90;;;;;;5000918;28;20381;-59
2021/10/11 09:21:31;;;;;;;24.58;12.95;;;12.30;99.90;;;;;;4997589;28;20031;-59
2021/10/11 09:24:12;;;;;;;16.40;3.53;;;12.30;99.90;;;;;;5004840;28;20029;-58
2021/10/11 09:26:48;;;;;;;14.68;3.80;;;12.40;99.90;;;;;;5006344;28;20030;-58
2021/10/11 09:29:16;;;;;;;17.70;3.60;;;12.40;99.90;;;;;;5009634;28;20132;-58
2021/10/11 09:31:48;;;;;;;18.67;3.60;;;12.50;99.90;;;;;;5007286;28;20476;-59
2021/10/11 09:34:17;;;;;;;19.95;5.88;;;12.70;99.90;;;;;;5004384;28;20030;-58
2021/10/11 09:36:43;;;;;;;24.00;4.72;;;12.70;99.90;;;;;;5009197;28;20045;-58
2021/10/11 09:39:09;;;;;;;14.85;3.88;;;12.60;99.90;;;;;;4997155;28;20050;-56
2021/10/11 09:41:34;;;;;;;20.48;4.40;;;12.60;99.90;;;;;;5009712;28;20057;-60
2021/10/11 09:44:10;;;;;;;22.52;5.38;;;12.60;99.90;;;;;;4994429;28;20403;-58
2021/10/11 09:46:46;;;;;;;25.55;5.30;;;12.70;99.90;;;;;;4992970;28;20062;-56
2021/10/11 09:49:12;;;;;;;22.45;5.97;;;12.70;99.90;;;;;;5008206;28;20034;-59
2021/10/11 09:51:39;;;;;;;23.38;6.20;;;12.80;99.90;;;;;;5000817;28;20038;-57
2021/10/11 09:54:05;;;;;;;20.85;6.03;;;12.90;99.90;;;;;;4994915;28;20563;-60
2021/10/11 09:56:32;;;;;;;27.65;7.68;;;13.00;99.90;;;;;;5010475;28;20033;-60
2021/10/11 09:58:59;;;;;;;23.80;8.02;;;12.90;99.90;;;;;;5014942;28;20040;-59
2021/10/11 10:01:26;;;;;;;19.38;6.57;;;13.00;99.90;;;;;;5007797;28;20476;-59
2021/10/11 10:03:55;;;;;;;13.98;4.43;;;13.10;99.90;;;;;;5003335;28;20088;-60
2021/10/11 10:06:25;;;;;;;15.05;3.53;;;13.10;99.90;;;;;;5011569;28;20076;-58
2021/10/11 10:08:52;;;;;;;16.48;3.50;;;13.10;99.90;;;;;;4995318;28;20400;-60
2021/10/11 10:11:19;;;;;;;18.75;4.25;;;13.10;99.90;;;;;;5002739;28;20134;-57
2021/10/11 10:13:47;;;;;;;15.43;3.45;;;13.00;99.90;;;;;;5007331;28;20050;-57
2021/10/11 10:16:14;;;;;;;12.45;3.22;;;13.20;99.90;;;;;;5010829;28;20034;-55
2021/10/11 10:18:42;;;;;;;11.20;2.50;;;13.20;99.90;;;;;;5022020;28;20484;-56
2021/10/11 10:21:09;;;;;;;15.43;2.70;;;13.20;99.90;;;;;;5023840;28;20026;-56
2021/10/11 10:23:37;;;;;;;11.85;2.70;;;13.30;99.90;;;;;;5028774;28;20025;-53
2021/10/11 10:26:11;;;;;;;14.27;2.88;;;13.40;99.90;;;;;;5011632;28;20392;-58
2021/10/11 10:28:50;;;;;;;14.18;3.13;;;13.50;99.90;;;;;;5013874;28;20491;-58
2021/10/11 10:31:27;;;;;;;12.95;4.00;;;13.50;99.90;;;;;;5026276;28;20437;-59
2021/10/11 10:33:54;;;;;;;10.38;2.30;;;13.50;99.90;;;;;;5016637;28;20116;-56
2021/10/11 10:36:28;;;;;;;22.90;6.30;;;13.60;99.90;;;;;;5028328;28;20037;-58
2021/10/11 10:39:07;;;;;;;25.95;6.85;;;13.70;99.90;;;;;;5010749;28;20112;-60
2021/10/11 10:41:34;;;;;;;11.80;3.45;;;13.80;99.90;;;;;;5032051;28;20037;-59
2021/10/11 10:44:16;;;;;;;10.98;2.35;;;13.80;99.90;;;;;;5021170;28;20040;-59
2021/10/11 10:47:01;;;;;;;17.80;3.17;;;13.80;99.90;;;;;;5025725;28;20022;-59
2021/10/11 10:49:26;;;;;;;14.98;2.80;;;13.90;99.90;;;;;;5026679;28;20038;-58
2021/10/11 10:51:52;;;;;;;10.60;2.40;;;14.00;99.90;;;;;;5027378;28;20041;-60
2021/10/11 10:54:18;;;;;;;13.18;2.40;;;14.10;99.90;;;;;;5016423;28;20046;-57
2021/10/11 10:56:51;;;;;;;10.73;2.67;;;14.10;99.90;;;;;;5018369;28;20393;-56
2021/10/11 10:59:24;;;;;;;11.60;2.90;;;14.10;99.90;;;;;;5031835;28;20490;-59
2021/10/11 11:01:49;;;;;;;12.82;2.90;;;14.10;99.90;;;;;;5018098;28;20598;-55
2021/10/11 11:04:21;;;;;;;12.13;2.72;;;14.00;99.90;;;;;;5022466;28;20104;-60
2021/10/11 11:06:59;;;;;;;15.75;3.13;;;14.10;99.90;;;;;;5018148;28;20077;-57
2021/10/11 11:09:36;;;;;;;15.95;3.60;;;14.30;99.90;;;;;;5005530;28;20037;-58
2021/10/11 11:12:02;;;;;;;16.08;3.70;;;14.40;99.90;;;;;;5016996;28;20384;-61
2021/10/11 11:14:27;;;;;;;10.90;2.78;;;14.30;99.90;;;;;;5014242;28;20057;-58
2021/10/11 11:16:53;;;;;;;14.02;3.10;;;14.40;99.90;;;;;;5012023;28;20111;-56
2021/10/11 11:19:19;;;;;;;11.48;2.75;;;14.40;99.90;;;;;;5018075;28;20036;-56
2021/10/11 11:21:55;;;;;;;16.30;4.00;;;14.30;99.90;;;;;;5023063;28;20065;-58
2021/10/11 11:24:21;;;;;;;16.55;3.20;;;14.40;99.90;;;;;;5011178;28;20123;-57
2021/10/11 11:26:46;;;;;;;13.35;2.97;;;14.50;99.90;;;;;;5032388;28;20068;-55
2021/10/11 11:29:15;;;;;;;8.20;2.15;;;14.70;99.90;;;;;;5031073;28;20032;-57
2021/10/11 11:31:51;;;;;;;12.43;2.55;;;14.70;99.90;;;;;;5026447;28;20044;-58
2021/10/11 11:34:17;;;;;;;10.65;2.65;;;14.80;99.90;;;;;;5013127;28;20026;-57
2021/10/11 11:36:55;;;;;;;11.77;2.88;;;14.80;99.90;;;;;;5010888;28;20022;-59
2021/10/11 11:39:24;;;;;;;7.15;2.53;;;14.90;99.90;;;;;;5013235;28;20034;-57
2021/10/11 11:41:55;;;;;;;12.15;2.58;;;14.90;99.90;;;;;;5012327;28;20492;-57
2021/10/11 11:44:27;;;;;;;9.40;2.67;;;14.90;99.90;;;;;;5016053;28;20045;-57
2021/10/11 11:47:10;;;;;;;13.38;2.72;;;15.00;99.90;;;;;;5007399;28;20037;-57
2021/10/11 11:49:40;;;;;;;11.93;2.88;;;15.10;99.90;;;;;;5005610;28;20068;-56
2021/10/11 11:52:13;;;;;;;12.95;2.80;;;15.20;99.90;;;;;;4999140;28;20188;-59
2021/10/11 11:54:52;;;;;;;11.38;2.80;;;15.20;99.90;;;;;;4995824;28;20113;-54
2021/10/11 11:57:21;;;;;;;12.43;2.70;;;15.10;99.90;;;;;;5010004;28;20484;-57
2021/10/11 11:59:49;;;;;;;13.85;3.67;;;15.00;99.90;;;;;;5003423;28;20508;-58
2021/10/11 12:02:16;;;;;;;11.27;2.55;;;15.10;99.90;;;;;;5011491;28;20472;-59
2021/10/11 12:04:44;;;;;;;11.68;2.70;;;15.10;99.90;;;;;;4996474;28;20113;-61
2021/10/11 12:07:14;;;;;;;8.63;2.60;;;14.90;99.90;;;;;;4992424;28;20065;-59
2021/10/11 12:09:40;;;;;;;11.13;2.70;;;14.90;99.90;;;;;;4993919;28;20033;-60
2021/10/11 12:12:07;;;;;;;12.48;2.50;;;14.90;99.90;;;;;;4992200;28;20034;-58
2021/10/11 12:14:33;;;;;;;18.15;3.92;;;15.00;99.90;;;;;;5010046;28;20049;-59
2021/10/11 12:17:07;;;;;;;18.35;5.07;;;15.10;99.90;;;;;;5004292;28;20022;-59
2021/10/11 12:19:34;;;;;;;10.27;2.85;;;15.20;99.90;;;;;;4993853;28;20034;-58
2021/10/11 12:22:01;;;;;;;14.30;3.22;;;15.40;99.90;;;;;;4996134;28;20069;-56
2021/10/11 12:24:35;;;;;;;11.45;2.83;;;15.50;99.90;;;;;;4992553;28;20030;-57
2021/10/11 12:27:04;;;;;;;16.10;4.10;;;15.50;99.90;;;;;;4994689;28;20559;-59
2021/10/11 12:29:33;;;;;;;12.52;2.53;;;15.40;99.90;;;;;;4998728;28;20038;-55
2021/10/11 12:32:05;;;;;;;12.68;3.05;;;15.40;99.90;;;;;;4997835;28;20039;-59
2021/10/11 12:34:33;;;;;;;9.60;2.50;;;15.30;99.90;;;;;;5007353;28;20400;-57
2021/10/11 12:37:01;;;;;;;16.13;2.47;;;15.30;99.90;;;;;;5004651;28;20065;-60
2021/10/11 12:39:33;;;;;;;11.80;2.67;;;15.40;99.90;;;;;;4993355;28;20030;-57
2021/10/11 12:41:59;;;;;;;12.70;3.00;;;15.40;99.90;;;;;;5001158;28;20030;-57
2021/10/11 12:44:57;;;;;;;12.05;2.42;;;15.30;99.90;;;;;;4994727;28;20381;-58
2021/10/11 12:47:32;;;;;;;10.23;2.75;;;15.20;99.90;;;;;;5002448;28;20053;-57